Flight Track Log - Related Links

Times and Time Zones

All times are in EDT time to prevent confusion due to time zone crossing. See the AKX1696 flight status page for this flight to view local times or setup timezone preferences in your user account.

Time Position Orientation Groundspeed Altitude Reporting Facility
EDT Latitude Longitude Course Direction KTS MPH feet Rate Location/Type
Sat 04:06:00 AM 36.0773 137.9876 240° Southwest  Level Estimated
Sat 04:07:00 AM 36.0337 137.8985 239° Southwest  Level Estimated
Sat 04:08:00 AM 35.9901 137.8095 239° Southwest  Level Estimated
Sat 04:09:00 AM 35.9464 137.7207 239° Southwest  Level Estimated
Sat 04:10:00 AM 35.9027 137.6319 239° Southwest  Level Estimated
Sat 04:11:00 AM 35.8589 137.5432 239° Southwest  Level Estimated
Sat 04:12:00 AM 35.8150 137.4546 239° Southwest  Level Estimated
Sat 04:13:00 AM 35.7710 137.3661 239° Southwest  Level Estimated
Sat 04:14:00 AM 35.7271 137.2777 239° Southwest  Level Estimated
Sat 04:15:00 AM 35.6830 137.1894 238° Southwest  Level Estimated
Sat 04:16:00 AM 35.6389 137.1012 238° Southwest  Level Estimated
Sat 04:17:00 AM 35.5947 137.0130 238° Southwest  Level Estimated
Sat 04:18:00 AM 35.5504 136.9250 238° Southwest  Level Estimated
Sat 04:19:00 AM 35.5061 136.8371 238° Southwest  Level Estimated
Sat 04:20:00 AM 35.4617 136.7493 238° Southwest  Level Estimated
Sat 04:21:00 AM 35.4172 136.6616 238° Southwest  Level Estimated
Sat 04:22:00 AM 35.3727 136.5740 238° Southwest  Level Estimated
Sat 04:23:00 AM 35.3281 136.4864 238° Southwest  Level Estimated
Sat 04:24:00 AM 35.2835 136.3990 238° Southwest  Level Estimated
Sat 04:25:00 AM 35.2388 136.3117 238° Southwest  Level Estimated
Sat 04:26:00 AM 35.1940 136.2244 238° Southwest  Level Estimated
Sat 04:27:00 AM 35.1492 136.1373 238° Southwest  Level Estimated
Sat 04:28:00 AM 35.1043 136.0502 238° Southwest  Level Estimated
Sat 04:29:00 AM 35.0594 135.9633 238° Southwest  Level Estimated
Sat 04:30:00 AM 35.0144 135.8764 238° Southwest  Level Estimated
Sat 04:31:00 AM 34.9693 135.7897 238° Southwest  Level Estimated
Sat 04:32:00 AM 34.9241 135.7030 238° Southwest  Level Estimated
Sat 04:33:00 AM 34.8789 135.6165 238° Southwest  Level Estimated
Sat 04:34:00 AM 34.8337 135.5300 237° Southwest  Level Estimated
Sat 04:35:00 AM 34.7883 135.4436 237° Southwest  Level Estimated
Sat 04:36:00 AM 34.7855 135.4382 237° Southwest  Level Estimated
Sat 04:37:00 AM 34.7855 135.4382 141° Southeast  Level Estimated
Sat 04:38:00 AM 34.7855 135.4382 141° Southeast  Level Estimated
Sat 04:39:00 AM 34.7855 135.4382 141° Southeast  Level Estimated
Sat 04:40:00 AM 34.7855 135.4382 141° Southeast  Level Estimated
Sat 04:41:00 AM 34.7855 135.4382 141° Southeast  Level Estimated
Sat 04:42:00 AM 34.7855 135.4382 141° Southeast  Level Estimated
Sat 04:43:00 AM 34.7855 135.4382 141° Southeast  Level Estimated
Sat 04:44:00 AM 34.7855 135.4382 141° Southeast  Level Estimated
Sat 04:45:00 AM 34.7855 135.4382 141° Southeast  Level Estimated
Sat 04:46:00 AM 34.7855 135.4382 141° Southeast  Level Estimated
Sat 04:47:00 AM 34.7855 135.4382 141° Southeast  Level Estimated
Sat 04:48:00 AM 34.7855 135.4382 141° Southeast  Level Estimated

Login

Don't have an account? Register now (free) for customized features, flight alerts, and more!